Paul, Idaho
Current Conditions -  °F | °C
As of 9:53 AM on Sunday 23 Nov 2014 (Local Time) from KBYI Reporting Station
Light Rain Light Rain  
Wind Chill: 23°   Ceiling: Unl
Heat Index: 34°   Visibility: 10mi
Dew Point: 24°   Wind: 20mph
Humidity: 67%   Direction: 260°W
Pressure: 30.23"   Gusts: 31mph
Location:  42.61°N, 113.78°W
Report Text: KBYI 231653Z AUTO 26017G27KT 10SM -RA CLR 01/M04 A3023 RMK AO2 PK WND 25031/1632 UPE19RAB19SNB38E44 SLP250 P0000 T00111044
Loading
Personal Weather Stations






























Interactive Weather Map New forecast layout! Learn more

10-Day Weather Forecast

Advertisements
Track Severe Weather on mobile